Time;durP1;ratioP1;P1;durP2;ratioP2;P2;SDS_P1;SDS_P2;PMS_P1;PMS_P2;Temp;Humidity;BMP_temperature;BMP_pressure;BME280_temperature;BME280_humidity;BME280_pressure;Samples;Min_cycle;Max_cycle;Signal;HPM_P1;HPM_P2
2021/06/13 00:01:31;;;;;;;;;14.75;14.75;;;;;;;;3504107;40;114047;-79
2021/06/13 00:03:57;;;;;;;;;12.50;12.50;;;;;;;;3504310;40;111825;-79
2021/06/13 00:06:23;;;;;;;;;13.50;13.50;;;;;;;;3504717;40;113254;-77
2021/06/13 00:08:49;;;;;;;;;13.25;13.25;;;;;;;;3503839;40;114647;-78
2021/06/13 00:11:17;;;;;;;;;16.00;14.50;;;;;;;;3504443;40;112417;-79
2021/06/13 00:13:44;;;;;;;;;11.00;11.00;;;;;;;;3504570;40;113392;-78
2021/06/13 00:16:13;;;;;;;;;13.00;13.00;;;;;;;;3503809;40;113736;-79
2021/06/13 00:18:39;;;;;;;;;15.75;14.00;;;;;;;;3507335;40;112250;-77
2021/06/13 00:21:05;;;;;;;;;15.00;14.50;;;;;;;;3502018;40;114261;-79
2021/06/13 00:23:31;;;;;;;;;14.75;13.00;;;;;;;;3504421;40;112018;-79
2021/06/13 00:25:57;;;;;;;;;15.75;14.25;;;;;;;;3504409;40;112796;-81
2021/06/13 00:28:25;;;;;;;;;14.50;13.00;;;;;;;;3504097;40;113916;-81
2021/06/13 00:30:51;;;;;;;;;14.75;13.00;;;;;;;;3502528;40;112432;-80
2021/06/13 00:33:17;;;;;;;;;12.75;12.75;;;;;;;;3504307;40;113591;-80
2021/06/13 00:35:43;;;;;;;;;15.25;14.25;;;;;;;;3504184;40;113827;-80
2021/06/13 00:38:09;;;;;;;;;12.00;11.75;;;;;;;;3504284;40;112865;-79
2021/06/13 00:40:36;;;;;;;;;16.25;14.75;;;;;;;;3506609;40;113345;-78
2021/06/13 00:43:03;;;;;;;;;15.00;14.50;;;;;;;;3504320;40;111996;-78
2021/06/13 00:45:30;;;;;;;;;13.00;13.00;;;;;;;;3504371;40;113338;-78
2021/06/13 00:47:56;;;;;;;;;12.25;12.25;;;;;;;;3503878;40;113929;-81
2021/06/13 00:50:26;;;;;;;;;13.75;13.00;;;;;;;;3504402;40;112051;-78
2021/06/13 00:52:52;;;;;;;;;14.25;14.00;;;;;;;;3504300;40;113762;-79
2021/06/13 00:55:18;;;;;;;;;14.00;14.00;;;;;;;;3503134;40;112898;-80
2021/06/13 00:57:44;;;;;;;;;13.00;13.00;;;;;;;;3504491;40;113962;-77
2021/06/13 01:00:10;;;;;;;;;13.75;11.75;;;;;;;;3504392;40;113452;-77
2021/06/13 01:02:38;;;;;;;;;13.25;13.25;;;;;;;;3506691;40;113941;-83
2021/06/13 01:05:05;;;;;;;;;15.00;14.00;;;;;;;;3502605;40;113221;-80
2021/06/13 01:07:35;;;;;;;;;14.25;14.00;;;;;;;;3481629;39;113950;-82
2021/06/13 01:10:03;;;;;;;;;15.50;14.50;;;;;;;;3507743;40;112163;-76
2021/06/13 01:12:36;;;;;;;;;14.50;14.00;;;;;;;;3503524;40;113497;-81
2021/06/13 01:15:04;;;;;;;;;16.00;16.00;;;;;;;;3502880;40;114040;-78
2021/06/13 01:17:33;;;;;;;;;16.25;15.00;;;;;;;;3503717;40;112016;-78
2021/06/13 01:20:08;;;;;;;;;14.50;14.00;;;;;;;;3503409;40;112368;-86
2021/06/13 01:22:38;;;;;;;;;13.75;13.50;;;;;;;;3504802;40;113899;-84
2021/06/13 01:25:06;;;;;;;;;14.50;14.50;;;;;;;;3502606;40;113278;-88
2021/06/13 01:27:50;;;;;;;;;14.75;14.75;;;;;;;;3504102;40;114120;-83
2021/06/13 01:30:17;;;;;;;;;15.50;15.00;;;;;;;;3504835;40;112149;-85
2021/06/13 01:32:44;;;;;;;;;15.00;14.00;;;;;;;;3504095;40;113437;-83
2021/06/13 01:35:13;;;;;;;;;12.75;11.25;;;;;;;;3502205;40;114356;-78
2021/06/13 01:37:43;;;;;;;;;14.75;14.75;;;;;;;;3504142;40;112659;-74
2021/06/13 01:40:10;;;;;;;;;13.50;12.75;;;;;;;;3504030;40;112742;-73
2021/06/13 01:42:36;;;;;;;;;14.00;13.50;;;;;;;;3503577;40;113955;-75
2021/06/13 01:45:05;;;;;;;;;14.00;13.00;;;;;;;;3506636;40;111969;-75
2021/06/13 01:47:34;;;;;;;;;15.00;15.00;;;;;;;;3503409;40;114209;-75
2021/06/13 01:50:00;;;;;;;;;15.00;15.00;;;;;;;;3503903;40;112294;-73
2021/06/13 01:52:27;;;;;;;;;14.50;13.00;;;;;;;;3503857;40;113588;-73
2021/06/13 01:54:55;;;;;;;;;15.75;14.75;;;;;;;;3503357;40;114016;-74
2021/06/13 01:57:22;;;;;;;;;15.00;15.00;;;;;;;;3503889;40;111758;-74
2021/06/13 01:59:48;;;;;;;;;15.75;13.00;;;;;;;;3503792;40;113754;-74
2021/06/13 02:02:15;;;;;;;;;15.00;13.00;;;;;;;;3503263;40;113817;-75
2021/06/13 02:04:43;;;;;;;;;15.75;14.75;;;;;;;;3503840;40;111897;-74
2021/06/13 02:07:09;;;;;;;;;15.25;14.50;;;;;;;;3505885;40;113609;-75
2021/06/13 02:09:36;;;;;;;;;15.00;15.00;;;;;;;;3503840;40;111814;-75
2021/06/13 02:12:04;;;;;;;;;15.00;15.00;;;;;;;;3503467;40;113335;-74
2021/06/13 02:14:31;;;;;;;;;15.00;15.00;;;;;;;;3503237;40;114272;-75
2021/06/13 02:16:58;;;;;;;;;15.00;15.00;;;;;;;;3503593;40;111821;-74
2021/06/13 02:19:24;;;;;;;;;15.00;14.50;;;;;;;;3503734;40;113334;-74
2021/06/13 02:21:55;;;;;;;;;14.00;14.00;;;;;;;;3503161;40;114635;-74
2021/06/13 02:24:23;;;;;;;;;18.50;14.75;;;;;;;;3503607;40;111712;-73
2021/06/13 02:26:49;;;;;;;;;16.25;15.00;;;;;;;;3503726;40;113970;-74
2021/06/13 02:29:16;;;;;;;;;16.00;13.75;;;;;;;;3505524;40;113479;-74
2021/06/13 02:31:44;;;;;;;;;16.00;16.00;;;;;;;;3504318;40;113337;-73
2021/06/13 02:34:10;;;;;;;;;18.00;17.00;;;;;;;;3504318;40;114361;-74
2021/06/13 02:36:37;;;;;;;;;17.00;16.00;;;;;;;;3504947;40;112238;-74
2021/06/13 02:39:06;;;;;;;;;16.00;15.00;;;;;;;;3502761;40;113528;-74
2021/06/13 02:41:32;;;;;;;;;14.75;14.75;;;;;;;;3503413;40;112906;-74
2021/06/13 02:43:58;;;;;;;;;14.75;14.75;;;;;;;;3504671;40;113482;-74
2021/06/13 02:46:25;;;;;;;;;14.50;13.00;;;;;;;;3504911;40;113651;-74
2021/06/13 02:48:51;;;;;;;;;18.50;16.00;;;;;;;;3504181;40;114409;-74
2021/06/13 02:51:20;;;;;;;;;17.25;15.75;;;;;;;;3507368;40;111784;-73
2021/06/13 02:53:47;;;;;;;;;15.25;14.75;;;;;;;;3504275;40;114052;-73
2021/06/13 02:56:23;;;;;;;;;18.50;18.00;;;;;;;;3501330;40;112267;-74
2021/06/13 02:58:54;;;;;;;;;15.75;15.75;;;;;;;;3504553;40;113338;-74
2021/06/13 03:01:22;;;;;;;;;19.00;16.00;;;;;;;;3504313;40;113938;-73
2021/06/13 03:03:49;;;;;;;;;16.00;15.75;;;;;;;;3504614;40;111870;-75
2021/06/13 03:06:17;;;;;;;;;16.50;16.25;;;;;;;;3504668;40;113802;-76
2021/06/13 03:08:44;;;;;;;;;17.50;17.00;;;;;;;;3504310;40;113906;-73
2021/06/13 03:11:11;;;;;;;;;16.25;14.75;;;;;;;;3504654;40;112287;-75
2021/06/13 03:13:39;;;;;;;;;16.75;14.25;;;;;;;;3506917;40;113455;-76
2021/06/13 03:16:06;;;;;;;;;17.25;17.25;;;;;;;;3502894;40;111828;-73
2021/06/13 03:18:33;;;;;;;;;15.50;15.00;;;;;;;;3504542;40;113285;-74
2021/06/13 03:21:00;;;;;;;;;18.25;15.25;;;;;;;;3504215;40;114235;-75
2021/06/13 03:23:29;;;;;;;;;19.50;17.75;;;;;;;;3504572;40;111891;-75
2021/06/13 03:25:56;;;;;;;;;16.50;16.50;;;;;;;;3504641;40;113298;-73
2021/06/13 03:28:24;;;;;;;;;16.00;16.00;;;;;;;;3504303;40;113799;-74
2021/06/13 03:30:52;;;;;;;;;17.25;16.50;;;;;;;;3504592;40;111761;-75
2021/06/13 03:33:19;;;;;;;;;16.75;15.75;;;;;;;;3506837;40;113330;-74
2021/06/13 03:35:45;;;;;;;;;15.75;15.50;;;;;;;;3504850;40;113006;-75
2021/06/13 03:38:13;;;;;;;;;16.50;15.25;;;;;;;;3504621;40;113215;-76
2021/06/13 03:40:40;;;;;;;;;21.00;17.00;;;;;;;;3504096;40;114679;-73
2021/06/13 03:43:07;;;;;;;;;17.25;16.75;;;;;;;;3504267;40;111910;-74
2021/06/13 03:45:34;;;;;;;;;15.75;15.75;;;;;;;;3504604;40;113640;-73
2021/06/13 03:48:03;;;;;;;;;16.50;14.25;;;;;;;;3503917;40;114407;-74
2021/06/13 03:50:31;;;;;;;;;16.25;16.25;;;;;;;;3504525;40;112038;-74
2021/06/13 03:52:59;;;;;;;;;16.00;16.00;;;;;;;;3504426;40;113502;-75
2021/06/13 03:55:26;;;;;;;;;19.00;18.00;;;;;;;;3506692;40;113938;-75
2021/06/13 03:57:54;;;;;;;;;17.00;16.25;;;;;;;;3504583;40;113187;-75
2021/06/13 04:00:21;;;;;;;;;18.50;15.75;;;;;;;;3503742;40;114304;-73
2021/06/13 04:02:48;;;;;;;;;15.25;14.50;;;;;;;;3504147;40;112245;-74
2021/06/13 04:05:17;;;;;;;;;18.00;15.75;;;;;;;;3504443;40;113695;-71
2021/06/13 04:07:44;;;;;;;;;14.50;13.25;;;;;;;;3503930;40;114263;-73
2021/06/13 04:10:11;;;;;;;;;16.25;15.00;;;;;;;;3504180;40;112169;-74
2021/06/13 04:12:38;;;;;;;;;16.50;16.00;;;;;;;;3504734;40;113328;-73
2021/06/13 04:15:05;;;;;;;;;13.50;13.50;;;;;;;;3503766;40;114395;-74
2021/06/13 04:17:33;;;;;;;;;15.75;15.75;;;;;;;;3507074;40;111911;-74
2021/06/13 04:20:01;;;;;;;;;14.75;14.75;;;;;;;;3503682;40;113976;-74
2021/06/13 04:22:29;;;;;;;;;17.75;17.00;;;;;;;;3504459;40;111755;-74
2021/06/13 04:24:56;;;;;;;;;18.00;16.75;;;;;;;;3504175;40;113326;-74
2021/06/13 04:27:23;;;;;;;;;14.00;13.00;;;;;;;;3504036;40;113877;-75
2021/06/13 04:29:50;;;;;;;;;18.00;16.25;;;;;;;;3504112;40;111901;-73
2021/06/13 04:32:17;;;;;;;;;16.50;15.50;;;;;;;;3504291;40;113295;-73
2021/06/13 04:34:43;;;;;;;;;16.00;15.75;;;;;;;;3503881;40;114203;-72
2021/06/13 04:37:10;;;;;;;;;18.50;16.25;;;;;;;;3504152;40;112505;-73
2021/06/13 04:39:39;;;;;;;;;18.00;16.00;;;;;;;;3504704;40;113821;-74
2021/06/13 04:42:06;;;;;;;;;16.25;16.00;;;;;;;;3502089;40;112778;-74
2021/06/13 04:44:33;;;;;;;;;19.00;17.25;;;;;;;;3504280;40;113641;-74
2021/06/13 04:47:00;;;;;;;;;19.00;17.75;;;;;;;;3503686;40;113929;-74
2021/06/13 04:49:26;;;;;;;;;19.00;16.50;;;;;;;;3504079;40;111888;-72
2021/06/13 04:51:55;;;;;;;;;18.75;18.00;;;;;;;;3504085;40;113631;-73
2021/06/13 04:54:29;;;;;;;;;19.50;18.75;;;;;;;;3503285;40;113715;-73
2021/06/13 04:57:02;;;;;;;;;14.75;14.75;;;;;;;;3504029;40;112084;-73
2021/06/13 04:59:29;;;;;;;;;20.75;19.25;;;;;;;;3504133;40;112799;-73
2021/06/13 05:01:55;;;;;;;;;19.00;19.00;;;;;;;;3506175;40;114029;-74
2021/06/13 05:04:22;;;;;;;;;21.00;19.25;;;;;;;;3504132;40;113371;-75
2021/06/13 05:06:48;;;;;;;;;18.25;17.25;;;;;;;;3503452;40;114209;-74
2021/06/13 05:09:15;;;;;;;;;21.50;19.00;;;;;;;;3504082;40;112084;-73
2021/06/13 05:11:41;;;;;;;;;17.25;17.25;;;;;;;;3504121;40;113611;-74
2021/06/13 05:14:10;;;;;;;;;18.00;17.00;;;;;;;;3503614;40;113920;-74
2021/06/13 05:16:38;;;;;;;;;17.25;17.00;;;;;;;;3502216;40;112183;-73
2021/06/13 05:19:04;;;;;;;;;24.75;19.75;;;;;;;;3503919;40;113265;-73
2021/06/13 05:21:31;;;;;;;;;17.00;17.00;;;;;;;;3503630;40;113925;-75
2021/06/13 05:24:00;;;;;;;;;22.25;18.50;;;;;;;;3506526;40;112120;-73
2021/06/13 05:26:27;;;;;;;;;23.00;21.25;;;;;;;;3503524;40;113918;-73
2021/06/13 05:28:53;;;;;;;;;23.00;20.00;;;;;;;;3501971;40;112258;-74
2021/06/13 05:31:21;;;;;;;;;20.25;18.50;;;;;;;;3503883;40;113413;-73
2021/06/13 05:33:48;;;;;;;;;19.00;19.00;;;;;;;;3503384;40;113997;-73
2021/06/13 05:36:15;;;;;;;;;21.75;20.25;;;;;;;;3503860;40;112564;-74
2021/06/13 05:38:43;;;;;;;;;23.00;19.50;;;;;;;;3504014;40;113370;-76
2021/06/13 05:41:09;;;;;;;;;19.50;19.50;;;;;;;;3501409;40;114281;-77
2021/06/13 05:43:36;;;;;;;;;22.00;22.00;;;;;;;;3506665;40;112030;-76
2021/06/13 05:46:03;;;;;;;;;23.50;22.00;;;;;;;;3503297;40;114344;-77
2021/06/13 05:48:32;;;;;;;;;21.25;21.25;;;;;;;;3504026;40;112091;-76
2021/06/13 05:50:58;;;;;;;;;20.75;20.75;;;;;;;;3503903;40;113273;-77
2021/06/13 05:53:25;;;;;;;;;22.75;22.50;;;;;;;;3503607;40;113924;-76
2021/06/13 05:55:52;;;;;;;;;24.75;20.75;;;;;;;;3503900;40;112651;-78
2021/06/13 05:58:18;;;;;;;;;27.75;21.75;;;;;;;;3503842;40;113528;-77
2021/06/13 06:00:45;;;;;;;;;25.00;22.00;;;;;;;;3503312;40;114549;-76
2021/06/13 06:03:12;;;;;;;;;24.75;24.75;;;;;;;;3503945;40;113105;-79
2021/06/13 06:05:40;;;;;;;;;19.50;19.00;;;;;;;;3505850;40;113769;-76
2021/06/13 06:08:06;;;;;;;;;25.00;20.75;;;;;;;;3503501;40;112466;-76
2021/06/13 06:10:34;;;;;;;;;27.50;25.00;;;;;;;;3503957;40;113201;-76
2021/06/13 06:13:03;;;;;;;;;23.50;22.00;;;;;;;;3503024;40;114478;-74
2021/06/13 06:15:31;;;;;;;;;23.75;22.75;;;;;;;;3503795;40;111941;-76
2021/06/13 06:17:58;;;;;;;;;28.75;28.25;;;;;;;;3502658;40;113289;-74
2021/06/13 06:20:26;;;;;;;;;26.75;26.75;;;;;;;;3502852;40;114370;-77
2021/06/13 06:22:55;;;;;;;;;25.75;25.25;;;;;;;;3500949;40;112100;-80
2021/06/13 06:25:22;;;;;;;;;24.75;24.25;;;;;;;;3503505;40;113722;-81
2021/06/13 06:27:50;;;;;;;;;26.75;24.50;;;;;;;;3505516;40;113913;-80
2021/06/13 06:30:18;;;;;;;;;37.25;31.75;;;;;;;;3503755;40;113461;-77
2021/06/13 06:32:45;;;;;;;;;30.00;28.25;;;;;;;;3502842;40;112998;-82
2021/06/13 06:35:13;;;;;;;;;28.75;28.25;;;;;;;;3503124;40;111835;-78
2021/06/13 06:37:41;;;;;;;;;30.00;28.25;;;;;;;;3502418;40;113508;-79
2021/06/13 06:40:10;;;;;;;;;31.75;27.50;;;;;;;;3502593;40;113953;-77
2021/06/13 06:42:37;;;;;;;;;30.50;30.25;;;;;;;;3503247;40;111875;-76
2021/06/13 06:45:04;;;;;;;;;29.00;28.00;;;;;;;;3500848;40;113771;-78
2021/06/13 06:47:31;;;;;;;;;28.50;28.50;;;;;;;;3502469;40;114298;-79
2021/06/13 06:49:58;;;;;;;;;24.75;24.25;;;;;;;;3505705;40;114049;-75
2021/06/13 06:52:24;;;;;;;;;28.25;27.25;;;;;;;;3502788;40;114421;-74
2021/06/13 06:54:52;;;;;;;;;28.25;27.75;;;;;;;;3503074;40;112644;-75
2021/06/13 06:57:20;;;;;;;;;29.00;26.75;;;;;;;;3503171;40;113517;-72
2021/06/13 06:59:51;;;;;;;;;35.50;32.00;;;;;;;;3502315;40;114885;-75
2021/06/13 07:02:18;;;;;;;;;28.75;28.25;;;;;;;;3502946;40;111839;-68
2021/06/13 07:04:46;;;;;;;;;32.25;29.50;;;;;;;;3502851;40;113248;-68
2021/06/13 07:07:15;;;;;;;;;26.25;24.25;;;;;;;;3502599;40;114527;-73
2021/06/13 07:09:42;;;;;;;;;28.50;27.50;;;;;;;;3502437;40;112308;-67
2021/06/13 07:12:09;;;;;;;;;27.25;27.25;;;;;;;;3505018;40;113276;-70
2021/06/13 07:14:37;;;;;;;;;34.25;30.25;;;;;;;;3503004;40;111779;-71
2021/06/13 07:17:04;;;;;;;;;27.00;25.00;;;;;;;;3501015;40;113307;-72
2021/06/13 07:19:30;;;;;;;;;31.00;27.75;;;;;;;;3503648;40;114077;-71
2021/06/13 07:21:57;;;;;;;;;26.75;25.00;;;;;;;;3504267;40;111825;-72
2021/06/13 07:24:23;;;;;;;;;27.50;27.50;;;;;;;;3503021;40;114168;-77
2021/06/13 07:26:50;;;;;;;;;22.00;22.00;;;;;;;;3503787;40;113845;-74
2021/06/13 07:29:17;;;;;;;;;24.25;24.00;;;;;;;;3502838;40;111965;-72
2021/06/13 07:31:45;;;;;;;;;26.00;25.25;;;;;;;;3503196;40;113241;-70
2021/06/13 07:34:11;;;;;;;;;27.00;24.75;;;;;;;;3504593;40;112107;-69
2021/06/13 07:36:38;;;;;;;;;24.75;23.00;;;;;;;;3502084;40;112378;-71
2021/06/13 07:39:05;;;;;;;;;29.25;27.50;;;;;;;;3503276;40;113948;-70
2021/06/13 07:41:35;;;;;;;;;28.00;26.75;;;;;;;;3502426;40;112289;-72
2021/06/13 07:44:02;;;;;;;;;30.00;28.00;;;;;;;;3503185;40;113392;-72
2021/06/13 07:46:28;;;;;;;;;29.50;27.00;;;;;;;;3503656;40;114722;-73
2021/06/13 07:48:57;;;;;;;;;24.25;23.75;;;;;;;;3504286;40;111812;-71
2021/06/13 07:51:23;;;;;;;;;25.50;25.25;;;;;;;;3504246;40;113233;-75
2021/06/13 07:53:52;;;;;;;;;26.75;24.00;;;;;;;;3506479;40;114164;-74
2021/06/13 07:56:18;;;;;;;;;30.25;27.75;;;;;;;;3504323;40;113543;-75
2021/06/13 07:58:45;;;;;;;;;26.25;26.25;;;;;;;;3503992;40;114090;-75
2021/06/13 08:01:12;;;;;;;;;30.75;29.75;;;;;;;;3504170;40;112061;-71
2021/06/13 08:03:40;;;;;;;;;23.75;23.75;;;;;;;;3504479;40;113241;-71
2021/06/13 08:06:08;;;;;;;;;26.33;23.67;;;;;;;;3501831;40;114530;-69
2021/06/13 08:08:35;;;;;;;;;25.33;23.00;;;;;;;;3501053;40;112973;-71
2021/06/13 08:11:01;;;;;;;;;29.00;27.75;;;;;;;;3503837;40;113332;-71
2021/06/13 08:13:28;;;;;;;;;29.50;28.00;;;;;;;;3503540;40;114519;-72
2021/06/13 08:15:55;;;;;;;;;23.67;22.67;;;;;;;;3506481;40;112715;-74
2021/06/13 08:18:21;;;;;;;;;29.67;27.33;;;;;;;;3503722;40;113160;-68
2021/06/13 08:20:48;;;;;;;;;22.33;21.00;;;;;;;;3504015;40;112188;-69
2021/06/13 08:23:16;;;;;;;;;24.67;24.00;;;;;;;;3504261;40;113260;-67
2021/06/13 08:25:43;;;;;;;;;24.67;23.33;;;;;;;;3501744;40;113123;-67
2021/06/13 08:28:09;;;;;;;;;32.33;29.33;;;;;;;;3503948;40;112077;-68
2021/06/13 08:30:36;;;;;;;;;29.67;26.00;;;;;;;;3501894;40;113418;-72
2021/06/13 08:33:02;;;;;;;;;24.33;22.33;;;;;;;;3503530;40;113623;-72
2021/06/13 08:35:29;;;;;;;;;24.33;23.33;;;;;;;;3503978;40;111846;-68
2021/06/13 08:37:57;;;;;;;;;37.67;31.67;;;;;;;;3505861;40;113447;-72
2021/06/13 08:40:25;;;;;;;;;34.33;30.00;;;;;;;;3503888;40;111877;-69
2021/06/13 08:42:52;;;;;;;;;20.00;20.00;;;;;;;;3503956;40;113219;-71
2021/06/13 08:45:19;;;;;;;;;23.00;22.00;;;;;;;;3503377;40;114120;-71
2021/06/13 08:47:47;;;;;;;;;188.00;170.50;;;;;;;;3503865;40;111831;-71
2021/06/13 08:50:14;;;;;;;;;39.67;32.00;;;;;;;;3504044;40;113433;-71
2021/06/13 08:52:40;;;;;;;;;26.00;25.33;;;;;;;;3503300;40;114427;-69
2021/06/13 08:55:08;;;;;;;;;28.67;25.33;;;;;;;;3501864;40;112397;-70
2021/06/13 08:57:36;;;;;;;;;30.67;28.00;;;;;;;;3503725;40;113860;-70
2021/06/13 09:00:02;;;;;;;;;29.67;28.00;;;;;;;;3505901;40;114143;-67
2021/06/13 09:02:29;;;;;;;;;31.00;27.67;;;;;;;;3503702;40;113374;-67
2021/06/13 09:04:56;;;;;;;;;32.33;29.33;;;;;;;;3503366;40;114012;-68
2021/06/13 09:07:23;;;;;;;;;39.33;32.33;;;;;;;;3503655;40;111891;-67
2021/06/13 09:09:50;;;;;;;;;26.00;25.67;;;;;;;;3503576;40;113564;-68
2021/06/13 09:12:16;;;;;;;;;33.33;30.33;;;;;;;;3503476;40;114277;-69
2021/06/13 09:14:46;;;;;;;;;37.67;32.67;;;;;;;;3501643;40;112280;-71
2021/06/13 09:17:17;;;;;;;;;29.33;28.00;;;;;;;;3502584;40;113264;-73
2021/06/13 09:20:04;;;;;;;;;21.00;20.33;;;;;;;;3497901;40;113403;-74
2021/06/13 09:22:31;;;;;;;;;20.33;20.33;;;;;;;;3504956;40;112063;-75
2021/06/13 09:25:08;;;;;;;;;27.00;25.00;;;;;;;;3502231;40;114617;-76
2021/06/13 09:27:37;;;;;;;;;24.00;23.00;;;;;;;;3502637;40;112426;-76
2021/06/13 09:30:08;;;;;;;;;26.33;26.33;;;;;;;;3502592;40;113266;-77
2021/06/13 09:32:50;;;;;;;;;22.33;19.33;;;;;;;;3500063;40;113471;-77
2021/06/13 09:35:20;;;;;;;;;22.00;21.67;;;;;;;;3502355;40;111892;-75
2021/06/13 09:38:08;;;;;;;;;20.33;19.33;;;;;;;;3503704;40;113818;-76
2021/06/13 09:40:36;;;;;;;;;20.67;19.33;;;;;;;;3502759;40;113859;-74
2021/06/13 09:43:13;;;;;;;;;24.67;22.00;;;;;;;;3506125;40;111813;-78
2021/06/13 09:45:45;;;;;;;;;39.33;32.67;;;;;;;;3501772;40;113946;-79
2021/06/13 09:48:12;;;;;;;;;48.25;38.50;;;;;;;;3501737;40;111950;-79
2021/06/13 09:50:40;;;;;;;;;30.67;28.33;;;;;;;;3502028;40;113303;-82
2021/06/13 09:53:24;;;;;;;;;25.33;25.33;;;;;;;;3503404;40;114155;-82
2021/06/13 09:56:02;;;;;;;;;22.33;21.33;;;;;;;;3503928;40;111912;-80
2021/06/13 09:58:28;;;;;;;;;24.33;23.00;;;;;;;;3503476;40;113887;-73
2021/06/13 10:01:05;;;;;;;;;23.67;21.33;;;;;;;;3503167;40;114564;-75
2021/06/13 10:03:35;;;;;;;;;20.33;20.00;;;;;;;;3501506;40;111886;-75
2021/06/13 10:06:01;;;;;;;;;21.33;21.00;;;;;;;;3503726;40;113392;-75
2021/06/13 10:08:28;;;;;;;;;21.00;19.33;;;;;;;;3503404;40;111954;-76
2021/06/13 10:10:55;;;;;;;;;21.67;21.67;;;;;;;;3501626;40;113337;-76
2021/06/13 10:13:38;;;;;;;;;24.67;21.33;;;;;;;;3503116;40;113855;-74
2021/06/13 10:16:06;;;;;;;;;20.00;20.00;;;;;;;;3501846;40;111725;-73
2021/06/13 10:18:32;;;;;;;;;24.67;23.00;;;;;;;;3503685;40;113453;-74
2021/06/13 10:21:09;;;;;;;;;21.00;21.00;;;;;;;;3503042;40;114570;-74
2021/06/13 10:23:36;;;;;;;;;21.00;20.00;;;;;;;;3502110;40;111943;-76
2021/06/13 10:26:03;;;;;;;;;22.00;21.67;;;;;;;;3503797;40;113766;-76
2021/06/13 10:29:22;;;;;;;;;20.00;19.67;;;;;;;;3580700;39;112594;-82
2021/06/13 10:31:49;;;;;;;;;22.67;22.00;;;;;;;;3572441;39;114134;-78
2021/06/13 10:34:20;;;;;;;;;20.33;20.33;;;;;;;;3576586;39;112752;-72
2021/06/13 10:36:47;;;;;;;;;23.00;21.33;;;;;;;;3576865;39;113266;-71
2021/06/13 10:39:14;;;;;;;;;21.67;20.33;;;;;;;;3575320;39;113945;-74
2021/06/13 10:41:41;;;;;;;;;23.33;22.33;;;;;;;;3577214;39;111891;-78
2021/06/13 10:44:10;;;;;;;;;21.67;20.00;;;;;;;;3575531;39;113135;-79
2021/06/13 10:46:39;;;;;;;;;24.33;23.00;;;;;;;;3576899;39;113564;-83
2021/06/13 10:49:06;;;;;;;;;21.67;20.67;;;;;;;;3578190;39;112213;-77
2021/06/13 10:51:34;;;;;;;;;22.67;22.67;;;;;;;;3574942;39;113869;-76
2021/06/13 10:54:19;;;;;;;;;22.67;22.00;;;;;;;;3580036;39;112058;-76
2021/06/13 10:56:46;;;;;;;;;21.67;21.67;;;;;;;;3578302;39;113642;-74
2021/06/13 10:59:14;;;;;;;;;21.33;20.67;;;;;;;;3576386;39;114177;-74
2021/06/13 11:01:56;;;;;;;;;19.33;19.33;;;;;;;;3576743;39;112953;-76
2021/06/13 11:04:40;;;;;;;;;20.33;17.67;;;;;;;;3576189;39;113735;-73
2021/06/13 11:07:07;;;;;;;;;14.67;14.67;;;;;;;;3578770;39;114465;-73
2021/06/13 11:09:34;;;;;;;;;19.67;18.67;;;;;;;;3575307;39;111771;-74
2021/06/13 11:12:00;;;;;;;;;19.67;19.00;;;;;;;;3579471;39;113195;-74
2021/06/13 11:14:28;;;;;;;;;23.00;20.00;;;;;;;;3577088;39;112076;-74
2021/06/13 11:16:57;;;;;;;;;19.67;18.00;;;;;;;;3577368;39;113339;-72
2021/06/13 11:19:27;;;;;;;;;21.33;19.67;;;;;;;;3574897;39;114312;-77
2021/06/13 11:22:13;;;;;;;;;22.00;19.00;;;;;;;;3576451;39;112599;-79
2021/06/13 11:24:46;;;;;;;;;19.33;18.33;;;;;;;;3575967;39;113824;-78
2021/06/13 11:27:12;;;;;;;;;22.33;20.00;;;;;;;;3576093;39;114093;-77
2021/06/13 11:30:00;;;;;;;;;21.33;20.00;;;;;;;;3575861;39;111909;-79
2021/06/13 11:32:47;;;;;;;;;17.00;16.67;;;;;;;;3573486;39;113583;-79
2021/06/13 11:35:28;;;;;;;;;24.00;19.00;;;;;;;;3576254;39;114307;-81
2021/06/13 11:38:14;;;;;;;;;18.33;13.67;;;;;;;;3576122;39;113383;-78
2021/06/13 11:40:47;;;;;;;;;18.00;15.67;;;;;;;;3568519;39;113996;-79
2021/06/13 11:43:15;;;;;;;;;16.00;15.00;;;;;;;;3569764;39;112700;-77
2021/06/13 11:45:53;;;;;;;;;16.67;16.67;;;;;;;;3569394;39;113235;-80
2021/06/13 11:48:21;;;;;;;;;22.33;21.00;;;;;;;;3568723;39;113773;-74
2021/06/13 11:51:07;;;;;;;;;20.00;17.67;;;;;;;;3569560;39;111928;-74
2021/06/13 11:53:54;;;;;;;;;19.67;19.67;;;;;;;;3565158;39;112249;-73
2021/06/13 11:56:40;;;;;;;;;35.25;32.25;;;;;;;;3566627;39;114157;-74
2021/06/13 11:59:09;;;;;;;;;33.75;30.75;;;;;;;;3571431;39;112371;-74
2021/06/13 12:01:37;;;;;;;;;29.33;25.00;;;;;;;;3572062;39;114078;-72
2021/06/13 12:04:04;;;;;;;;;38.50;33.00;;;;;;;;3568603;39;111855;-73
2021/06/13 12:06:33;;;;;;;;;32.50;29.25;;;;;;;;3566475;39;112414;-72
2021/06/13 12:09:00;;;;;;;;;36.75;32.75;;;;;;;;3569807;39;113817;-75
2021/06/13 12:11:31;;;;;;;;;32.50;30.00;;;;;;;;3568899;39;111985;-77
2021/06/13 12:13:57;;;;;;;;;40.75;33.00;;;;;;;;3569591;39;113563;-74
2021/06/13 12:16:27;;;;;;;;;30.50;27.75;;;;;;;;3570863;39;114003;-81
2021/06/13 12:19:00;;;;;;;;;19.67;18.00;;;;;;;;3570377;39;112116;-79
2021/06/13 12:21:27;;;;;;;;;21.50;19.50;;;;;;;;3570002;39;114367;-80
2021/06/13 12:24:01;;;;;;;;;24.25;23.75;;;;;;;;3569327;39;111807;-77
2021/06/13 12:29:24;;;;;;;;;30.00;29.75;;;;;;;;3568779;39;112520;-78
2021/06/13 12:31:51;;;;;;;;;27.75;25.50;;;;;;;;3569309;39;112323;-80
2021/06/13 12:34:18;;;;;;;;;22.00;22.00;;;;;;;;3569552;39;113328;-80
2021/06/13 12:36:48;;;;;;;;;25.75;25.00;;;;;;;;3569403;39;114011;-78
2021/06/13 12:39:25;;;;;;;;;25.00;23.25;;;;;;;;3568182;39;112535;-79
2021/06/13 12:41:52;;;;;;;;;21.67;20.00;;;;;;;;3569453;39;113495;-80
2021/06/13 12:44:19;;;;;;;;;23.25;21.25;;;;;;;;3571156;39;113762;-81
2021/06/13 12:46:45;;;;;;;;;20.25;20.25;;;;;;;;3569449;39;113310;-81
2021/06/13 12:49:12;;;;;;;;;25.50;23.50;;;;;;;;3568480;39;114432;-81
2021/06/13 12:51:41;;;;;;;;;23.00;21.75;;;;;;;;3569464;39;111859;-79
2021/06/13 12:54:14;;;;;;;;;24.50;23.25;;;;;;;;3569101;39;113303;-79
2021/06/13 12:56:42;;;;;;;;;24.25;24.25;;;;;;;;3569911;39;114370;-79
2021/06/13 12:59:09;;;;;;;;;27.25;25.75;;;;;;;;3570357;39;111946;-83
2021/06/13 13:01:40;;;;;;;;;23.25;22.25;;;;;;;;3572781;39;113264;-81
2021/06/13 13:04:06;;;;;;;;;21.25;21.25;;;;;;;;3573016;39;113956;-73
2021/06/13 13:06:46;;;;;;;;;54.00;43.00;;;;;;;;3568440;39;113256;-78
2021/06/13 13:09:13;;;;;;;;;35.75;31.25;;;;;;;;3570031;39;113994;-74
2021/06/13 13:11:43;;;;;;;;;24.75;23.50;;;;;;;;3568425;39;112104;-74
2021/06/13 13:14:19;;;;;;;;;23.25;21.00;;;;;;;;3569521;39;113571;-73
2021/06/13 13:16:45;;;;;;;;;27.00;25.00;;;;;;;;3568773;39;114477;-78
2021/06/13 13:19:27;;;;;;;;;24.50;20.75;;;;;;;;3569410;39;111941;-73
2021/06/13 13:21:54;;;;;;;;;22.25;20.75;;;;;;;;3569729;39;113335;-74
2021/06/13 13:24:27;;;;;;;;;20.75;18.00;;;;;;;;3568855;39;114249;-79
2021/06/13 13:27:01;;;;;;;;;19.00;19.00;;;;;;;;3572806;39;112449;-81
2021/06/13 13:29:43;;;;;;;;;20.00;18.50;;;;;;;;3568593;39;113961;-85
2021/06/13 13:32:10;;;;;;;;;21.00;17.00;;;;;;;;3568907;39;112128;-84
2021/06/13 13:34:37;;;;;;;;;19.33;19.33;;;;;;;;3568654;39;113417;-77
2021/06/13 13:38:38;;;;;;;;;21.00;21.00;;;;;;;;3539349;39;160637;-75
2021/06/13 13:41:05;;;;;;;;;19.00;19.00;;;;;;;;3551190;39;113098;-74
2021/06/13 13:43:32;;;;;;;;;17.67;17.33;;;;;;;;3549102;39;112429;-74
2021/06/13 13:45:58;;;;;;;;;19.00;18.00;;;;;;;;3551144;39;113421;-75
2021/06/13 13:48:26;;;;;;;;;21.00;20.00;;;;;;;;3548841;39;113601;-74
2021/06/13 13:50:59;;;;;;;;;21.00;19.00;;;;;;;;3549517;39;112275;-73
2021/06/13 13:53:28;;;;;;;;;18.00;18.00;;;;;;;;3549255;39;113608;-74
2021/06/13 13:55:58;;;;;;;;;18.67;18.67;;;;;;;;3548915;39;117154;-74
2021/06/13 13:58:26;;;;;;;;;17.00;17.00;;;;;;;;3552201;39;112119;-74
2021/06/13 14:00:54;;;;;;;;;21.00;21.00;;;;;;;;3548813;39;114396;-74
2021/06/13 14:03:24;;;;;;;;;22.33;19.33;;;;;;;;3550189;39;112043;-75
2021/06/13 14:05:51;;;;;;;;;21.33;18.33;;;;;;;;3551084;39;113590;-74
2021/06/13 14:08:18;;;;;;;;;22.33;20.00;;;;;;;;3550627;39;113881;-74
2021/06/13 14:10:45;;;;;;;;;23.33;19.00;;;;;;;;3550878;39;111836;-74
2021/06/13 14:13:13;;;;;;;;;19.67;19.67;;;;;;;;3550905;39;113427;-74
2021/06/13 14:15:40;;;;;;;;;18.33;17.67;;;;;;;;3550382;39;114624;-75
2021/06/13 14:18:06;;;;;;;;;20.00;18.33;;;;;;;;3550921;39;112640;-74